createdAt,value
2018-05-09T00:00:35.272Z,58.41
2018-05-09T00:03:02.661Z,58.57
2018-05-09T00:05:30.044Z,58.81
2018-05-09T00:07:57.419Z,58.84
2018-05-09T00:10:24.821Z,60.18
2018-05-09T00:12:52.203Z,60.82
2018-05-09T00:15:19.588Z,61.09
2018-05-09T00:17:48.008Z,62.18
2018-05-09T00:20:15.397Z,61.76
2018-05-09T00:22:42.785Z,62.38
2018-05-09T00:25:10.179Z,64.04
2018-05-09T00:27:37.570Z,63.43
2018-05-09T00:30:04.965Z,63.35
2018-05-09T00:32:32.352Z,63.11
2018-05-09T00:34:59.744Z,63.70
2018-05-09T00:37:27.138Z,63.94
2018-05-09T00:39:54.524Z,63.85
2018-05-09T00:42:21.916Z,64.96
2018-05-09T00:44:49.314Z,65.49
2018-05-09T00:47:16.692Z,64.67
2018-05-09T00:49:44.085Z,63.15
2018-05-09T00:52:12.304Z,64.77
2018-05-09T00:54:39.698Z,63.15
2018-05-09T00:57:07.081Z,63.24
2018-05-09T00:59:34.468Z,61.28
2018-05-09T01:02:01.852Z,61.22
2018-05-09T01:04:29.248Z,61.43
2018-05-09T01:06:56.636Z,63.21
2018-05-09T01:09:24.045Z,62.63
2018-05-09T01:11:51.436Z,64.14
2018-05-09T01:14:19.707Z,64.02
2018-05-09T01:16:47.032Z,65.07
2018-05-09T01:19:14.416Z,65.31
2018-05-09T01:21:41.821Z,65.32
2018-05-09T01:24:09.204Z,65.17
2018-05-09T01:26:36.602Z,64.39
2018-05-09T01:29:03.992Z,64.34
2018-05-09T01:31:31.379Z,66.38
2018-05-09T01:33:58.770Z,67.59
2018-05-09T01:36:26.621Z,66.60
2018-05-09T01:38:54.008Z,66.88
2018-05-09T01:41:21.400Z,63.91
2018-05-09T01:43:48.784Z,63.29
2018-05-09T01:46:17.161Z,62.94
2018-05-09T01:48:44.540Z,62.64
2018-05-09T01:51:12.774Z,62.90
2018-05-09T01:53:40.145Z,63.72
2018-05-09T01:56:07.533Z,63.15
2018-05-09T01:58:34.922Z,62.29
2018-05-09T02:01:02.308Z,62.75
2018-05-09T02:03:29.699Z,63.85
2018-05-09T02:05:57.104Z,63.84
2018-05-09T02:08:24.471Z,64.57
2018-05-09T02:10:51.862Z,65.18
2018-05-09T02:13:19.241Z,64.93
2018-05-09T02:15:46.637Z,66.05
2018-05-09T02:18:14.017Z,67.13
2018-05-09T02:20:41.413Z,67.79
2018-05-09T02:23:08.796Z,67.55
2018-05-09T02:25:36.191Z,67.68
2018-05-09T02:28:03.615Z,67.97
2018-05-09T02:30:30.999Z,68.91
2018-05-09T02:32:58.391Z,68.87
2018-05-09T02:35:25.844Z,69.30
2018-05-09T02:37:54.149Z,69.47
2018-05-09T02:40:22.195Z,69.62
2018-05-09T02:42:50.165Z,69.87
2018-05-09T02:45:17.550Z,69.98
2018-05-09T02:47:44.949Z,70.29
2018-05-09T02:50:12.329Z,70.39
2018-05-09T02:52:39.733Z,70.53
2018-05-09T02:55:07.112Z,70.84
2018-05-09T02:57:34.502Z,70.52
2018-05-09T03:00:01.884Z,70.45
2018-05-09T03:02:29.290Z,70.26
2018-05-09T03:04:56.663Z,69.87
2018-05-09T03:07:24.076Z,70.22
2018-05-09T03:09:51.466Z,69.66
2018-05-09T03:12:18.849Z,69.59
2018-05-09T03:14:46.233Z,70.60
2018-05-09T03:17:13.631Z,70.20
2018-05-09T03:19:41.008Z,70.10
2018-05-09T03:22:08.411Z,70.89
2018-05-09T03:24:35.784Z,70.59
2018-05-09T03:27:03.176Z,70.43
2018-05-09T03:29:30.573Z,70.58
2018-05-09T03:31:57.956Z,70.38
2018-05-09T03:34:25.337Z,70.28
2018-05-09T03:36:52.736Z,69.50
2018-05-09T03:39:20.116Z,68.88
2018-05-09T03:41:47.509Z,68.47
2018-05-09T03:44:14.889Z,68.27
2018-05-09T03:46:42.274Z,67.32
2018-05-09T03:49:09.676Z,67.91
2018-05-09T03:51:37.061Z,67.99
2018-05-09T03:54:04.456Z,68.24
2018-05-09T03:56:31.851Z,68.76
2018-05-09T03:58:59.248Z,68.83
2018-05-09T04:01:26.686Z,69.74
2018-05-09T04:04:06.593Z,69.63
2018-05-09T04:06:45.725Z,69.83
2018-05-09T04:09:25.162Z,70.29
2018-05-09T04:11:52.450Z,70.79
2018-05-09T04:14:20.748Z,70.90
2018-05-09T04:16:48.132Z,71.71
2018-05-09T04:19:15.522Z,72.32
2018-05-09T04:21:42.908Z,72.72
2018-05-09T04:24:10.303Z,72.55
2018-05-09T04:26:37.693Z,71.95
2018-05-09T04:29:05.084Z,71.18
2018-05-09T04:31:33.371Z,70.68
2018-05-09T04:34:00.764Z,70.64
2018-05-09T04:36:28.144Z,70.29
2018-05-09T04:38:55.852Z,69.73
2018-05-09T04:41:23.246Z,70.01
2018-05-09T04:43:50.638Z,69.87
2018-05-09T04:46:18.024Z,69.35
2018-05-09T04:48:45.422Z,69.32
2018-05-09T04:51:12.856Z,68.98
2018-05-09T04:53:40.253Z,69.17
2018-05-09T04:56:07.649Z,68.94
2018-05-09T04:58:35.055Z,68.45
2018-05-09T05:01:02.436Z,68.97
2018-05-09T05:03:29.835Z,69.71
2018-05-09T05:05:57.241Z,67.95
2018-05-09T05:08:24.641Z,67.13
2018-05-09T05:10:52.036Z,67.66
2018-05-09T05:13:19.424Z,67.34
2018-05-09T05:15:46.911Z,66.62
2018-05-09T05:18:14.208Z,67.50
2018-05-09T05:20:41.603Z,67.78
2018-05-09T05:23:08.976Z,66.43
2018-05-09T05:25:36.379Z,65.89
2018-05-09T05:28:03.767Z,64.97
2018-05-09T05:30:31.156Z,61.94
2018-05-09T05:32:58.545Z,60.51
2018-05-09T05:35:25.936Z,60.04
2018-05-09T05:37:53.331Z,59.14
2018-05-09T05:40:20.727Z,53.70
2018-05-09T05:42:48.104Z,47.46
2018-05-09T05:45:15.547Z,43.74
2018-05-09T05:47:42.886Z,41.41
2018-05-09T05:50:10.711Z,43.14
2018-05-09T05:52:38.110Z,40.69
2018-05-09T05:55:05.485Z,39.93
2018-05-09T05:57:32.884Z,37.71
2018-05-09T06:00:00.274Z,37.55
2018-05-09T06:02:27.669Z,36.99
2018-05-09T06:04:55.054Z,35.32
2018-05-09T06:07:22.448Z,37.57
2018-05-09T06:09:49.835Z,40.03
2018-05-09T06:12:17.232Z,39.94
2018-05-09T06:14:45.455Z,38.71
2018-05-09T06:17:12.940Z,36.02
2018-05-09T06:19:40.259Z,38.41
2018-05-09T06:22:07.660Z,37.31
2018-05-09T06:24:35.056Z,36.20
2018-05-09T06:27:02.445Z,36.21
2018-05-09T06:29:29.827Z,38.52
2018-05-09T06:31:58.056Z,44.09
2018-05-09T06:34:25.445Z,44.37
2018-05-09T06:36:52.847Z,48.51
2018-05-09T06:39:20.244Z,46.91
2018-05-09T06:41:47.693Z,49.10
2018-05-09T06:44:15.035Z,49.52
2018-05-09T06:46:43.564Z,51.14
2018-05-09T06:49:10.976Z,49.88
2018-05-09T06:51:38.369Z,50.81
2018-05-09T06:54:05.783Z,50.50
2018-05-09T06:56:33.150Z,50.47
2018-05-09T06:59:00.741Z,51.51
2018-05-09T07:01:28.112Z,51.98
2018-05-09T07:03:55.518Z,51.69
2018-05-09T07:06:23.009Z,51.22
2018-05-09T07:08:50.312Z,51.58
2018-05-09T07:11:17.698Z,50.85
2018-05-09T07:13:45.091Z,50.71
2018-05-09T07:16:12.476Z,51.05
2018-05-09T07:18:39.877Z,52.25
2018-05-09T07:21:07.252Z,51.45
2018-05-09T07:23:34.652Z,50.27
2018-05-09T07:26:02.279Z,51.61
2018-05-09T07:28:30.249Z,51.85
2018-05-09T07:30:57.660Z,52.38
2018-05-09T07:33:25.036Z,51.95
2018-05-09T07:35:52.421Z,52.16
2018-05-09T07:38:19.822Z,51.63
2018-05-09T07:40:47.200Z,50.51
2018-05-09T07:43:14.613Z,51.20
2018-05-09T07:45:41.997Z,49.02
2018-05-09T07:48:09.401Z,49.17
2018-05-09T07:50:36.789Z,49.19
2018-05-09T07:53:04.176Z,48.38
2018-05-09T07:55:31.614Z,47.46
2018-05-09T07:57:58.975Z,48.74
2018-05-09T08:00:26.357Z,48.87
2018-05-09T08:02:53.765Z,48.87
2018-05-09T08:05:21.172Z,47.78
2018-05-09T08:07:48.571Z,47.31
2018-05-09T08:10:16.589Z,47.13
2018-05-09T08:12:44.434Z,46.61
2018-05-09T08:15:11.776Z,47.41
2018-05-09T08:17:39.167Z,46.70
2018-05-09T08:20:07.480Z,46.83
2018-05-09T08:22:34.867Z,46.73
2018-05-09T08:25:02.263Z,47.97
2018-05-09T08:27:29.653Z,48.16
2018-05-09T08:29:57.074Z,47.43
2018-05-09T08:32:24.445Z,45.80
2018-05-09T08:34:51.836Z,45.88
2018-05-09T08:37:19.232Z,45.25
2018-05-09T08:39:46.633Z,45.41
2018-05-09T08:42:14.015Z,44.53
2018-05-09T08:44:41.404Z,45.77
2018-05-09T08:47:08.795Z,44.82
2018-05-09T08:49:36.205Z,44.46
2018-05-09T08:52:03.584Z,43.72
2018-05-09T08:54:30.984Z,44.14
2018-05-09T08:56:58.379Z,44.44
2018-05-09T08:59:25.765Z,42.99
2018-05-09T09:01:53.561Z,43.87
2018-05-09T09:04:20.997Z,42.17
2018-05-09T09:06:48.341Z,43.26
2018-05-09T09:09:15.732Z,42.72
2018-05-09T09:11:43.122Z,41.87
2018-05-09T09:14:10.543Z,42.53
2018-05-09T09:16:37.938Z,41.08
2018-05-09T09:19:05.316Z,41.29
2018-05-09T09:21:32.706Z,41.82
2018-05-09T09:24:00.129Z,42.41
2018-05-09T09:26:27.856Z,42.00
2018-05-09T09:28:55.237Z,41.56
2018-05-09T09:31:22.641Z,42.15
2018-05-09T09:33:50.038Z,42.72
2018-05-09T09:36:17.434Z,41.70
2018-05-09T09:38:44.820Z,41.31
2018-05-09T09:41:12.212Z,41.81
2018-05-09T09:43:40.029Z,43.19
2018-05-09T09:46:07.656Z,42.06
2018-05-09T09:48:35.041Z,41.32
2018-05-09T09:51:02.427Z,42.64
2018-05-09T09:53:29.815Z,41.68
2018-05-09T09:55:57.210Z,41.84
2018-05-09T09:58:24.604Z,40.73
2018-05-09T10:00:52.690Z,40.99
2018-05-09T10:03:20.093Z,41.55
2018-05-09T10:05:47.480Z,40.94
2018-05-09T10:08:14.861Z,42.22
2018-05-09T10:10:43.028Z,40.33
2018-05-09T10:13:10.423Z,40.60
2018-05-09T10:15:37.815Z,42.36
2018-05-09T10:18:05.201Z,41.59
2018-05-09T10:20:32.585Z,39.68
2018-05-09T10:22:59.972Z,40.54
2018-05-09T10:25:27.371Z,39.37
2018-05-09T10:27:54.999Z,38.75
2018-05-09T10:30:22.411Z,40.23
2018-05-09T10:32:49.994Z,39.64
2018-05-09T10:35:17.358Z,38.93
2018-05-09T10:37:44.748Z,38.98
2018-05-09T10:40:12.142Z,37.94
2018-05-09T10:42:40.209Z,37.70
2018-05-09T10:45:07.601Z,37.46
2018-05-09T10:47:34.994Z,38.58
2018-05-09T10:50:02.379Z,35.76
2018-05-09T10:52:29.788Z,35.19
2018-05-09T10:54:57.177Z,35.38
2018-05-09T10:57:24.583Z,37.50
2018-05-09T10:59:51.960Z,38.55
2018-05-09T11:02:19.404Z,36.86
2018-05-09T11:04:46.830Z,37.88
2018-05-09T11:07:14.215Z,39.09
2018-05-09T11:09:41.601Z,38.62
2018-05-09T11:12:08.992Z,38.21
2018-05-09T11:14:36.382Z,38.70
2018-05-09T11:17:03.788Z,40.35
2018-05-09T11:19:31.396Z,39.27
2018-05-09T11:21:58.788Z,39.39
2018-05-09T11:24:26.277Z,40.24
2018-05-09T11:26:53.569Z,39.41
2018-05-09T11:29:20.948Z,39.85
2018-05-09T11:31:48.345Z,39.37
2018-05-09T11:34:15.745Z,40.73
2018-05-09T11:36:43.140Z,41.09
2018-05-09T11:39:10.602Z,40.80
2018-05-09T11:41:37.985Z,41.23
2018-05-09T11:44:05.390Z,39.13
2018-05-09T11:46:32.769Z,37.73
2018-05-09T11:49:00.983Z,39.02
2018-05-09T11:51:28.385Z,38.10
2018-05-09T11:53:55.779Z,37.19
2018-05-09T11:56:23.155Z,37.02
2018-05-09T11:58:50.545Z,36.64
2018-05-09T12:01:17.938Z,39.55
2018-05-09T12:03:45.329Z,38.25
2018-05-09T12:06:12.727Z,38.00
2018-05-09T12:08:40.118Z,38.50
2018-05-09T12:11:07.506Z,39.14
2018-05-09T12:13:34.906Z,39.08
2018-05-09T12:16:02.300Z,39.00
2018-05-09T12:18:29.722Z,38.94
2018-05-09T12:20:57.108Z,39.06
2018-05-09T12:23:24.512Z,39.28
2018-05-09T12:25:51.897Z,39.08
2018-05-09T12:28:19.295Z,37.37
2018-05-09T12:30:46.687Z,38.97
2018-05-09T12:33:14.068Z,37.68
2018-05-09T12:35:41.465Z,37.77
2018-05-09T12:38:08.840Z,37.27
2018-05-09T12:40:36.240Z,37.06
2018-05-09T12:43:03.635Z,36.73
2018-05-09T12:45:31.041Z,36.01
2018-05-09T12:47:58.420Z,36.95
2018-05-09T12:50:25.812Z,35.42
2018-05-09T12:52:54.313Z,34.32
2018-05-09T12:55:22.620Z,35.09
2018-05-09T12:57:50.008Z,33.31
2018-05-09T13:00:17.417Z,34.52
2018-05-09T13:02:44.797Z,35.10
2018-05-09T13:05:12.192Z,35.07
2018-05-09T13:07:39.596Z,35.84
2018-05-09T13:10:06.983Z,33.51
2018-05-09T13:12:34.393Z,33.75
2018-05-09T13:15:01.787Z,34.26
2018-05-09T13:17:29.171Z,34.58
2018-05-09T13:19:56.564Z,34.86
2018-05-09T13:22:24.616Z,35.60
2018-05-09T13:24:52.007Z,35.97
2018-05-09T13:27:19.396Z,35.94
2018-05-09T13:29:47.804Z,35.79
2018-05-09T13:32:15.186Z,35.44
2018-05-09T13:34:43.176Z,35.27
2018-05-09T13:37:10.546Z,35.11
2018-05-09T13:39:37.959Z,36.50
2018-05-09T13:42:05.356Z,36.56
2018-05-09T13:44:33.092Z,37.42
2018-05-09T13:47:00.488Z,36.85
2018-05-09T13:49:27.955Z,36.36
2018-05-09T13:51:55.382Z,35.54
2018-05-09T13:54:22.760Z,35.13
2018-05-09T13:56:50.144Z,34.27
2018-05-09T13:59:18.082Z,33.59
2018-05-09T14:01:45.487Z,34.16
2018-05-09T14:04:12.892Z,33.72
2018-05-09T14:06:40.605Z,33.64
2018-05-09T14:09:07.998Z,32.52
2018-05-09T14:11:35.396Z,33.00
2018-05-09T14:14:02.809Z,34.30
2018-05-09T14:16:30.984Z,33.73
2018-05-09T14:18:58.357Z,34.47
2018-05-09T14:21:26.458Z,34.47
2018-05-09T14:23:53.838Z,33.98
2018-05-09T14:26:21.225Z,34.11
2018-05-09T14:28:49.871Z,34.56
2018-05-09T14:31:17.674Z,34.07
2018-05-09T14:33:45.053Z,34.66
2018-05-09T14:36:13.115Z,34.60
2018-05-09T14:38:40.484Z,33.23
2018-05-09T14:41:07.880Z,33.88
2018-05-09T14:43:35.268Z,34.21
2018-05-09T14:46:02.706Z,34.95
2018-05-09T14:48:30.989Z,32.15
2018-05-09T14:50:58.379Z,31.85
2018-05-09T14:53:26.608Z,32.33
2018-05-09T14:55:54.360Z,32.76
2018-05-09T14:58:21.744Z,32.45
2018-05-09T15:00:49.741Z,33.95
2018-05-09T15:03:17.141Z,31.53
2018-05-09T15:05:44.802Z,31.77
2018-05-09T15:08:12.188Z,32.09
2018-05-09T15:10:39.572Z,33.47
2018-05-09T15:13:06.970Z,33.20
2018-05-09T15:15:34.354Z,34.21
2018-05-09T15:18:01.761Z,33.67
2018-05-09T15:20:29.176Z,32.62
2018-05-09T15:22:56.563Z,31.43
2018-05-09T15:25:23.958Z,32.75
2018-05-09T15:27:51.360Z,33.08
2018-05-09T15:30:18.754Z,31.91
2018-05-09T15:32:46.246Z,31.74
2018-05-09T15:35:13.547Z,31.48
2018-05-09T15:37:41.849Z,29.45
2018-05-09T15:40:09.269Z,33.80
2018-05-09T15:42:37.916Z,30.04
2018-05-09T15:45:05.313Z,28.32
2018-05-09T15:47:32.716Z,29.53
2018-05-09T15:50:00.809Z,30.86
2018-05-09T15:52:28.556Z,30.94
2018-05-09T15:54:55.950Z,31.48
2018-05-09T15:57:23.336Z,32.76
2018-05-09T15:59:52.299Z,30.78
2018-05-09T16:02:19.696Z,30.88
2018-05-09T16:04:47.084Z,30.92
2018-05-09T16:07:15.311Z,29.96
2018-05-09T16:12:16.449Z,30.92
2018-05-09T16:14:43.826Z,31.10
2018-05-09T16:17:11.220Z,30.33
2018-05-09T16:19:38.602Z,30.24
2018-05-09T16:22:05.988Z,29.00
2018-05-09T16:24:33.382Z,28.49
2018-05-09T16:27:00.789Z,28.83
2018-05-09T16:29:29.088Z,28.93
2018-05-09T16:31:56.482Z,28.93
2018-05-09T16:34:24.757Z,28.31
2018-05-09T16:36:52.889Z,29.01
2018-05-09T16:39:20.932Z,29.13
2018-05-09T16:41:48.321Z,28.79
2018-05-09T16:44:15.727Z,28.46
2018-05-09T16:46:43.104Z,29.30
2018-05-09T16:49:10.504Z,29.22
2018-05-09T16:51:37.885Z,29.54
2018-05-09T16:54:05.272Z,29.00
2018-05-09T16:56:32.664Z,27.32
2018-05-09T16:59:00.052Z,27.94
2018-05-09T17:01:28.768Z,28.36
2018-05-09T17:03:56.400Z,28.23
2018-05-09T17:06:23.803Z,28.29
2018-05-09T17:08:51.192Z,28.84
2018-05-09T17:11:18.572Z,28.32
2018-05-09T17:13:45.957Z,28.33
2018-05-09T17:16:14.204Z,27.90
2018-05-09T17:18:41.672Z,26.42
2018-05-09T17:21:20.782Z,26.99
2018-05-09T17:23:48.166Z,27.02
2018-05-09T17:26:15.569Z,27.05
2018-05-09T17:28:44.648Z,27.39
2018-05-09T17:31:12.044Z,28.43
2018-05-09T17:33:39.439Z,28.86
2018-05-09T17:36:06.829Z,30.62
2018-05-09T17:38:34.222Z,28.60
2018-05-09T17:41:01.648Z,28.65
2018-05-09T17:43:29.029Z,28.20
2018-05-09T17:45:56.414Z,29.78
2018-05-09T17:48:23.813Z,31.58
2018-05-09T17:50:51.208Z,29.78
2018-05-09T17:53:18.868Z,30.70
2018-05-09T17:55:47.750Z,32.31
2018-05-09T17:58:15.948Z,32.42
2018-05-09T18:00:43.353Z,31.55
2018-05-09T18:03:10.731Z,32.65
2018-05-09T18:05:38.124Z,33.58
2018-05-09T18:08:05.517Z,34.58
2018-05-09T18:10:32.905Z,35.69
2018-05-09T18:13:00.293Z,36.37
2018-05-09T18:15:27.706Z,36.95
2018-05-09T18:17:55.978Z,37.45
2018-05-09T18:20:23.372Z,37.64
2018-05-09T18:22:50.821Z,37.82
2018-05-09T18:25:18.218Z,38.36
2018-05-09T18:27:45.612Z,38.55
2018-05-09T18:30:13.000Z,39.18
2018-05-09T18:32:40.401Z,39.56
2018-05-09T18:35:07.768Z,39.52
2018-05-09T18:37:35.175Z,40.06
2018-05-09T18:40:03.630Z,40.37
2018-05-09T18:42:30.946Z,40.61
2018-05-09T18:44:58.324Z,40.96
2018-05-09T18:47:25.715Z,41.17
2018-05-09T18:49:55.889Z,41.30
2018-05-09T18:52:23.278Z,41.56
2018-05-09T18:54:52.052Z,41.81
2018-05-09T18:57:19.453Z,42.30
2018-05-09T18:59:46.852Z,42.84
2018-05-09T19:02:14.232Z,42.98
2018-05-09T19:04:41.620Z,43.57
2018-05-09T19:07:09.018Z,43.72
2018-05-09T19:09:36.403Z,44.48
2018-05-09T19:12:04.082Z,44.95
2018-05-09T19:14:31.479Z,45.53
2018-05-09T19:16:59.799Z,46.21
2018-05-09T19:19:27.958Z,47.71
2018-05-09T19:21:56.950Z,48.20
2018-05-09T19:24:24.326Z,47.95
2018-05-09T19:26:51.742Z,47.61
2018-05-09T19:29:19.113Z,49.60
2018-05-09T19:31:46.562Z,48.94
2018-05-09T19:34:13.952Z,48.05
2018-05-09T19:36:41.324Z,49.76
2018-05-09T19:39:08.712Z,50.66
2018-05-09T19:41:36.330Z,50.16
2018-05-09T19:44:03.650Z,50.39
2018-05-09T19:46:31.035Z,51.36
2018-05-09T19:48:59.787Z,51.80
2018-05-09T19:51:27.164Z,53.09
2018-05-09T19:53:54.576Z,52.82
2018-05-09T19:56:21.956Z,53.59
2018-05-09T19:58:49.359Z,53.74
2018-05-09T20:01:16.758Z,54.60
2018-05-09T20:03:44.152Z,55.46
2018-05-09T20:06:11.543Z,55.77
2018-05-09T20:08:38.981Z,54.32
2018-05-09T20:11:06.318Z,55.83
2018-05-09T20:13:33.728Z,54.46
2018-05-09T20:16:01.117Z,54.88
2018-05-09T20:18:28.670Z,56.25
2018-05-09T20:20:56.041Z,56.29
2018-05-09T20:23:23.464Z,56.32
2018-05-09T20:25:50.876Z,56.04
2018-05-09T20:28:18.267Z,56.56
2018-05-09T20:30:51.316Z,56.66
2018-05-09T20:33:18.716Z,55.77
2018-05-09T20:35:46.100Z,55.24
2018-05-09T20:38:14.067Z,55.34
2018-05-09T20:40:41.445Z,56.51
2018-05-09T20:43:08.849Z,57.00
2018-05-09T20:45:36.241Z,57.08
2018-05-09T20:48:03.621Z,57.35
2018-05-09T20:50:31.305Z,58.00
2018-05-09T20:52:58.687Z,58.65
2018-05-09T20:55:27.894Z,58.31
2018-05-09T20:57:55.335Z,57.98
2018-05-09T21:00:22.724Z,58.78
2018-05-09T21:02:50.145Z,59.25
2018-05-09T21:05:17.512Z,57.55
2018-05-09T21:07:55.623Z,58.39
2018-05-09T21:10:23.016Z,58.99
2018-05-09T21:12:50.397Z,57.99
2018-05-09T21:15:17.791Z,57.50
2018-05-09T21:17:45.172Z,57.16
2018-05-09T21:20:12.600Z,56.03
2018-05-09T21:22:39.956Z,55.55
2018-05-09T21:25:07.356Z,55.57
2018-05-09T21:27:34.797Z,55.48
2018-05-09T21:30:02.794Z,56.05
2018-05-09T21:32:30.187Z,56.06
2018-05-09T21:34:57.584Z,55.86
2018-05-09T21:37:24.966Z,54.40
2018-05-09T21:39:52.360Z,53.81
2018-05-09T21:42:19.749Z,53.72
2018-05-09T21:44:47.142Z,52.78
2018-05-09T21:47:14.524Z,50.15
2018-05-09T21:49:41.942Z,48.08
2018-05-09T21:52:09.296Z,48.68
2018-05-09T21:54:36.681Z,50.06
2018-05-09T21:57:04.096Z,50.86
2018-05-09T22:02:38.176Z,50.20
2018-05-09T22:05:05.557Z,50.79
2018-05-09T22:07:32.945Z,51.79
2018-05-09T22:10:00.372Z,51.67
2018-05-09T22:12:27.761Z,52.95
2018-05-09T22:14:55.154Z,44.94
2018-05-09T22:17:22.548Z,44.10
2018-05-09T22:19:49.937Z,48.79
2018-05-09T22:22:17.330Z,49.10
2018-05-09T22:24:45.821Z,42.48
2018-05-09T22:27:13.238Z,44.67
2018-05-09T22:29:40.628Z,46.67
2018-05-09T22:32:08.032Z,55.97
2018-05-09T22:34:35.407Z,58.68
2018-05-09T22:37:02.796Z,57.56
2018-05-09T22:39:30.197Z,60.87
2018-05-09T22:41:57.593Z,58.54
2018-05-09T22:44:24.975Z,59.21
2018-05-09T22:46:52.378Z,54.96
2018-05-09T22:49:19.763Z,56.97
2018-05-09T22:51:47.153Z,57.61
2018-05-09T22:54:14.536Z,58.65
2018-05-09T22:56:41.920Z,61.05
2018-05-09T22:59:09.305Z,67.50
2018-05-09T23:01:36.688Z,68.26
2018-05-09T23:04:04.067Z,68.70
2018-05-09T23:06:31.471Z,66.24
2018-05-09T23:08:58.874Z,60.86
2018-05-09T23:11:26.249Z,57.27
2018-05-09T23:13:53.639Z,61.21
2018-05-09T23:16:21.039Z,63.70
2018-05-09T23:18:48.425Z,60.29
2018-05-09T23:21:15.840Z,65.80
2018-05-09T23:23:43.234Z,70.74
2018-05-09T23:26:10.606Z,68.17
2018-05-09T23:28:38.018Z,63.03
2018-05-09T23:31:05.548Z,62.88
2018-05-09T23:33:32.955Z,63.19
2018-05-09T23:36:00.351Z,65.87
2018-05-09T23:38:27.746Z,71.86
2018-05-09T23:40:55.133Z,74.98
2018-05-09T23:43:22.533Z,71.42
2018-05-09T23:45:49.923Z,71.50
2018-05-09T23:48:17.309Z,64.78
2018-05-09T23:50:44.693Z,66.64
2018-05-09T23:53:12.071Z,70.43
2018-05-09T23:55:39.513Z,72.93
2018-05-09T23:58:06.848Z,71.98
